createdAt,value
2023-09-20T00:02:01.293Z,2.00
2023-09-20T00:04:31.323Z,1.90
2023-09-20T00:06:58.187Z,1.63
2023-09-20T00:09:25.123Z,2.47
2023-09-20T00:11:52.339Z,2.37
2023-09-20T00:14:19.880Z,1.97
2023-09-20T00:16:46.463Z,2.10
2023-09-20T00:19:12.954Z,2.20
2023-09-20T00:21:40.208Z,1.97
2023-09-20T00:24:07.026Z,2.00
2023-09-20T00:26:35.139Z,1.97
2023-09-20T00:29:09.719Z,1.83
2023-09-20T00:31:38.725Z,2.30
2023-09-20T00:34:05.287Z,2.17
2023-09-20T00:36:33.001Z,2.30
2023-09-20T00:38:59.686Z,2.27
2023-09-20T00:41:28.782Z,2.00
2023-09-20T00:43:55.982Z,1.80
2023-09-20T00:46:24.558Z,2.20
2023-09-20T00:48:52.336Z,1.97
2023-09-20T00:51:23.169Z,2.07
2023-09-20T00:53:53.924Z,2.23
2023-09-20T00:56:21.270Z,2.10
2023-09-20T00:58:48.598Z,2.70
2023-09-20T01:01:16.714Z,2.70
2023-09-20T01:03:45.154Z,2.17
2023-09-20T01:06:16.137Z,2.23
2023-09-20T01:08:43.175Z,2.07
2023-09-20T01:11:10.993Z,3.40
2023-09-20T01:13:39.156Z,1.80
2023-09-20T01:16:06.285Z,2.10
2023-09-20T01:18:34.015Z,2.30
2023-09-20T01:21:01.775Z,2.27
2023-09-20T01:23:28.870Z,2.60
2023-09-20T01:25:58.121Z,2.37
2023-09-20T01:28:27.417Z,2.80
2023-09-20T01:30:55.097Z,2.17
2023-09-20T01:33:24.035Z,2.23
2023-09-20T01:35:51.224Z,2.30
2023-09-20T01:38:18.007Z,2.10
2023-09-20T01:40:48.196Z,2.87
2023-09-20T01:43:14.764Z,2.17
2023-09-20T01:45:44.259Z,2.50
2023-09-20T01:48:12.728Z,2.00
2023-09-20T01:50:40.293Z,2.30
2023-09-20T01:53:09.971Z,2.50
2023-09-20T01:55:43.445Z,2.53
2023-09-20T01:58:13.932Z,2.80
2023-09-20T02:00:43.028Z,2.70
2023-09-20T02:03:15.836Z,2.37
2023-09-20T02:05:43.238Z,2.40
2023-09-20T02:08:11.100Z,2.30
2023-09-20T02:10:39.118Z,2.40
2023-09-20T02:13:06.443Z,2.53
2023-09-20T02:15:35.683Z,2.60
2023-09-20T02:18:06.629Z,2.77
2023-09-20T02:20:38.085Z,2.30
2023-09-20T02:23:07.025Z,2.50
2023-09-20T02:25:33.669Z,2.47
2023-09-20T02:28:00.773Z,2.60
2023-09-20T02:30:37.238Z,2.67
2023-09-20T02:33:06.858Z,2.57
2023-09-20T02:35:35.023Z,2.30
2023-09-20T02:38:05.555Z,2.40
2023-09-20T02:40:34.275Z,2.60
2023-09-20T02:43:00.819Z,2.70
2023-09-20T02:45:30.522Z,2.57
2023-09-20T02:47:59.069Z,2.50
2023-09-20T02:50:27.903Z,2.40
2023-09-20T02:52:56.031Z,2.73
2023-09-20T02:55:23.600Z,3.17
2023-09-20T02:57:55.638Z,2.73
2023-09-20T03:00:28.880Z,2.57
2023-09-20T03:02:57.745Z,2.57
2023-09-20T03:05:29.413Z,2.50
2023-09-20T03:07:56.973Z,2.80
2023-09-20T03:10:24.470Z,3.20
2023-09-20T03:12:52.656Z,2.07
2023-09-20T03:15:25.253Z,2.13
2023-09-20T03:17:55.613Z,2.73
2023-09-20T03:20:27.060Z,2.73
2023-09-20T03:23:00.181Z,2.67
2023-09-20T03:25:37.134Z,2.60
2023-09-20T03:28:10.348Z,2.90
2023-09-20T03:30:40.396Z,2.43
2023-09-20T03:33:10.158Z,2.90
2023-09-20T03:35:38.551Z,2.40
2023-09-20T03:38:05.987Z,3.00
2023-09-20T03:40:33.443Z,2.80
2023-09-20T03:43:08.447Z,2.33
2023-09-20T03:45:37.698Z,2.60
2023-09-20T03:48:04.733Z,2.87
2023-09-20T03:50:31.378Z,2.53
2023-09-20T03:52:58.186Z,2.20
2023-09-20T03:55:24.817Z,2.60
2023-09-20T03:57:51.884Z,2.90
2023-09-20T04:00:19.794Z,2.87
2023-09-20T04:02:52.752Z,2.50
2023-09-20T04:05:34.858Z,2.73
2023-09-20T04:08:07.595Z,2.53
2023-09-20T04:10:34.659Z,3.00
2023-09-20T04:13:01.191Z,3.50
2023-09-20T04:15:30.308Z,2.70
2023-09-20T04:17:56.974Z,2.60
2023-09-20T04:20:24.440Z,2.50
2023-09-20T04:22:51.441Z,2.50
2023-09-20T04:25:18.251Z,2.73
2023-09-20T04:27:44.833Z,2.53
2023-09-20T04:30:14.799Z,2.53
2023-09-20T04:32:43.678Z,2.57
2023-09-20T04:35:18.277Z,3.10
2023-09-20T04:37:45.790Z,3.00
2023-09-20T04:40:12.716Z,2.70
2023-09-20T04:42:40.251Z,2.70
2023-09-20T04:45:13.830Z,3.20
2023-09-20T04:47:40.828Z,2.30
2023-09-20T04:50:08.216Z,2.57
2023-09-20T04:52:34.964Z,2.63
2023-09-20T04:55:02.283Z,2.63
2023-09-20T04:57:29.066Z,2.53
2023-09-20T04:59:55.583Z,2.60
2023-09-20T05:02:23.719Z,2.60
2023-09-20T05:04:50.533Z,3.20
2023-09-20T05:07:17.712Z,2.50
2023-09-20T05:09:45.466Z,3.17
2023-09-20T05:12:13.350Z,3.43
2023-09-20T05:14:40.756Z,2.60
2023-09-20T05:17:07.469Z,3.13
2023-09-20T05:19:34.496Z,2.47
2023-09-20T05:22:02.174Z,2.80
2023-09-20T05:24:29.147Z,2.90
2023-09-20T05:26:55.936Z,2.70
2023-09-20T05:29:22.717Z,3.03
2023-09-20T05:31:50.810Z,3.00
2023-09-20T05:34:18.807Z,2.97
2023-09-20T05:36:47.123Z,2.70
2023-09-20T05:39:13.927Z,2.93
2023-09-20T05:41:41.995Z,3.10
2023-09-20T05:44:08.911Z,3.23
2023-09-20T05:46:35.866Z,2.70
2023-09-20T05:49:03.490Z,2.30
2023-09-20T05:51:32.103Z,3.73
2023-09-20T05:53:58.905Z,2.90
2023-09-20T05:56:27.044Z,2.90
2023-09-20T05:58:54.831Z,2.40
2023-09-20T06:01:21.779Z,2.70
2023-09-20T06:03:48.398Z,2.93
2023-09-20T06:06:15.784Z,2.60
2023-09-20T06:08:43.655Z,2.73
2023-09-20T06:11:12.126Z,2.50
2023-09-20T06:13:39.677Z,2.53
2023-09-20T06:16:07.585Z,2.53
2023-09-20T06:18:37.431Z,3.60
2023-09-20T06:21:09.842Z,2.50
2023-09-20T06:23:36.661Z,2.60
2023-09-20T06:26:07.867Z,2.90
2023-09-20T06:28:34.657Z,2.63
2023-09-20T06:31:02.040Z,2.93
2023-09-20T06:33:29.426Z,2.60
2023-09-20T06:35:56.727Z,3.20
2023-09-20T06:38:25.149Z,2.90
2023-09-20T06:40:56.474Z,2.70
2023-09-20T06:43:22.999Z,2.63
2023-09-20T06:45:53.485Z,3.07
2023-09-20T06:48:26.650Z,2.37
2023-09-20T06:50:55.438Z,2.73
2023-09-20T06:53:26.422Z,2.60
2023-09-20T06:55:53.078Z,2.80
2023-09-20T06:58:22.527Z,2.43
2023-09-20T07:00:51.983Z,2.90
2023-09-20T07:03:20.548Z,2.67
2023-09-20T07:05:47.713Z,2.70
2023-09-20T07:08:15.780Z,3.73
2023-09-20T07:10:43.617Z,2.60
2023-09-20T07:13:11.828Z,2.70
2023-09-20T07:15:38.917Z,2.67
2023-09-20T07:18:13.059Z,2.70
2023-09-20T07:20:45.916Z,3.33
2023-09-20T07:23:16.909Z,2.57
2023-09-20T07:25:44.501Z,2.90
2023-09-20T07:28:11.805Z,3.30
2023-09-20T07:30:42.168Z,2.73
2023-09-20T07:33:13.611Z,2.50
2023-09-20T07:35:48.874Z,2.87
2023-09-20T07:38:27.490Z,2.60
2023-09-20T07:41:09.511Z,3.03
2023-09-20T07:43:39.188Z,2.87
2023-09-20T07:46:08.532Z,2.77
2023-09-20T07:48:49.000Z,3.27
2023-09-20T07:51:17.739Z,2.83
2023-09-20T07:53:44.709Z,2.73
2023-09-20T07:56:13.386Z,2.80
2023-09-20T07:58:42.545Z,2.90
2023-09-20T08:01:13.781Z,3.33
2023-09-20T08:03:49.371Z,3.00
2023-09-20T08:06:16.687Z,2.63
2023-09-20T08:08:43.474Z,2.80
2023-09-20T08:11:14.269Z,2.67
2023-09-20T08:13:42.099Z,2.73
2023-09-20T08:16:11.817Z,3.20
2023-09-20T08:18:57.275Z,2.50
2023-09-20T08:21:24.625Z,3.23
2023-09-20T08:24:09.553Z,2.60
2023-09-20T08:26:54.588Z,3.20
2023-09-20T08:29:40.694Z,2.50
2023-09-20T08:32:25.845Z,2.47
2023-09-20T08:35:11.336Z,2.53
2023-09-20T08:37:59.310Z,2.57
2023-09-20T08:40:44.291Z,2.67
2023-09-20T08:43:29.792Z,2.43
2023-09-20T08:46:16.067Z,3.10
2023-09-20T08:49:02.304Z,2.27
2023-09-20T08:52:08.157Z,3.17
2023-09-20T08:54:55.029Z,2.60
2023-09-20T08:57:41.203Z,2.50
2023-09-20T09:00:21.115Z,2.83
2023-09-20T09:02:51.532Z,3.00
2023-09-20T09:05:19.086Z,2.27
2023-09-20T09:07:45.607Z,2.30
2023-09-20T09:10:14.805Z,2.90
2023-09-20T09:12:42.898Z,2.60
2023-09-20T09:15:13.294Z,2.80
2023-09-20T09:17:41.404Z,2.30
2023-09-20T09:20:12.349Z,2.30
2023-09-20T09:22:39.845Z,2.50
2023-09-20T09:25:18.713Z,2.50
2023-09-20T09:27:45.752Z,2.57
2023-09-20T09:30:16.490Z,2.57
2023-09-20T09:32:45.352Z,2.80
2023-09-20T09:35:15.640Z,2.80
2023-09-20T09:37:43.576Z,2.77
2023-09-20T09:40:10.769Z,2.50
2023-09-20T09:42:37.369Z,2.40
2023-09-20T09:45:03.984Z,2.53
2023-09-20T09:47:31.680Z,2.67
2023-09-20T09:50:01.137Z,2.40
2023-09-20T09:52:29.734Z,2.20
2023-09-20T09:54:56.457Z,2.40
2023-09-20T09:57:24.339Z,2.17
2023-09-20T09:59:53.259Z,2.70
2023-09-20T10:02:26.716Z,2.30
2023-09-20T10:05:02.520Z,2.53
2023-09-20T10:07:32.890Z,2.60
2023-09-20T10:10:09.958Z,2.33
2023-09-20T10:12:39.634Z,2.33
2023-09-20T10:15:12.246Z,2.60
2023-09-20T10:18:00.312Z,2.57
2023-09-20T10:20:59.162Z,2.30
2023-09-20T10:23:27.545Z,2.33
2023-09-20T10:25:57.618Z,2.50
2023-09-20T10:28:26.181Z,2.80
2023-09-20T10:31:06.052Z,2.67
2023-09-20T10:33:58.905Z,2.13
2023-09-20T10:36:28.183Z,3.40
2023-09-20T10:39:18.096Z,2.70
2023-09-20T10:41:46.985Z,2.63
2023-09-20T10:44:34.850Z,2.73
2023-09-20T10:47:07.439Z,2.87
2023-09-20T10:49:42.822Z,2.80
2023-09-20T10:52:10.124Z,3.03
2023-09-20T10:54:40.859Z,2.50
2023-09-20T10:57:11.733Z,3.10
2023-09-20T10:59:40.143Z,2.53
2023-09-20T11:02:17.519Z,2.80
2023-09-20T11:04:47.595Z,2.90
2023-09-20T11:07:15.612Z,3.23
2023-09-20T11:09:43.917Z,2.93
2023-09-20T11:12:12.479Z,2.67
2023-09-20T11:14:42.536Z,3.17
2023-09-20T11:17:14.652Z,2.80
2023-09-20T11:19:41.696Z,2.80
2023-09-20T11:22:08.321Z,2.80
2023-09-20T11:24:42.534Z,3.17
2023-09-20T11:27:09.576Z,3.50
2023-09-20T11:29:38.354Z,2.77
2023-09-20T11:32:10.791Z,2.47
2023-09-20T11:34:48.850Z,3.13
2023-09-20T11:37:16.935Z,2.60
2023-09-20T11:39:45.673Z,3.30
2023-09-20T11:42:23.629Z,2.70
2023-09-20T11:45:22.793Z,3.30
2023-09-20T11:47:52.996Z,2.90
2023-09-20T11:50:23.639Z,3.00
2023-09-20T11:52:50.737Z,2.70
2023-09-20T11:55:18.383Z,2.40
2023-09-20T11:57:48.983Z,4.07
2023-09-20T12:00:20.454Z,3.33
2023-09-20T12:02:48.684Z,3.17
2023-09-20T12:05:18.478Z,2.70
2023-09-20T12:07:57.886Z,2.90
2023-09-20T12:10:29.039Z,2.70
2023-09-20T12:12:55.958Z,2.70
2023-09-20T12:15:24.791Z,3.20
2023-09-20T12:17:53.154Z,2.83
2023-09-20T12:20:20.515Z,3.43
2023-09-20T12:22:47.360Z,3.07
2023-09-20T12:25:16.849Z,3.00
2023-09-20T12:27:47.294Z,2.97
2023-09-20T12:30:14.505Z,3.10
2023-09-20T12:32:44.757Z,3.00
2023-09-20T12:35:11.969Z,3.00
2023-09-20T12:37:38.848Z,2.80
2023-09-20T12:40:09.130Z,3.37
2023-09-20T12:42:36.716Z,3.13
2023-09-20T12:45:06.085Z,3.10
2023-09-20T12:47:37.151Z,2.63
2023-09-20T12:50:04.763Z,2.93
2023-09-20T12:52:31.707Z,2.90
2023-09-20T12:54:59.234Z,3.20
2023-09-20T12:57:26.324Z,3.30
2023-09-20T12:59:53.894Z,2.73
2023-09-20T13:02:20.574Z,3.10
2023-09-20T13:04:47.485Z,2.80
2023-09-20T13:07:14.595Z,2.73
2023-09-20T13:09:41.288Z,2.80
2023-09-20T13:12:09.190Z,2.40
2023-09-20T13:14:36.415Z,3.03
2023-09-20T13:17:03.259Z,2.80
2023-09-20T13:19:29.968Z,3.10
2023-09-20T13:22:00.384Z,2.73
2023-09-20T13:24:27.227Z,2.63
2023-09-20T13:26:53.987Z,2.97
2023-09-20T13:29:20.949Z,2.77
2023-09-20T13:31:48.492Z,2.90
2023-09-20T13:34:16.793Z,2.90
2023-09-20T13:36:48.281Z,2.70
2023-09-20T13:39:18.868Z,3.00
2023-09-20T13:41:46.395Z,2.93
2023-09-20T13:44:13.009Z,3.00
2023-09-20T13:46:39.774Z,2.73
2023-09-20T13:49:11.421Z,2.80
2023-09-20T13:51:39.938Z,3.10
2023-09-20T13:54:07.415Z,2.73
2023-09-20T13:56:34.570Z,2.60
2023-09-20T13:59:01.449Z,3.10
2023-09-20T14:01:28.527Z,3.10
2023-09-20T14:03:55.777Z,3.03
2023-09-20T14:06:22.606Z,2.87
2023-09-20T14:08:49.940Z,3.33
2023-09-20T14:11:16.676Z,2.77
2023-09-20T14:13:43.326Z,3.23
2023-09-20T14:16:10.938Z,3.13
2023-09-20T14:18:37.525Z,3.17
2023-09-20T14:21:04.964Z,6.97
2023-09-20T14:23:31.595Z,6.73
2023-09-20T14:25:58.206Z,8.27
2023-09-20T14:28:24.693Z,9.43
2023-09-20T14:30:51.217Z,3.83
2023-09-20T14:33:17.878Z,3.30
2023-09-20T14:35:45.137Z,3.07
2023-09-20T14:38:11.866Z,2.83
2023-09-20T14:40:38.491Z,2.90
2023-09-20T14:43:05.166Z,3.03
2023-09-20T14:45:32.239Z,3.10
2023-09-20T14:48:01.362Z,2.47
2023-09-20T14:50:29.254Z,2.77
2023-09-20T14:52:58.127Z,3.27
2023-09-20T14:55:27.552Z,2.90
2023-09-20T14:57:56.632Z,2.60
2023-09-20T15:00:25.385Z,2.80
2023-09-20T15:02:54.626Z,2.70
2023-09-20T15:05:21.767Z,2.50
2023-09-20T15:07:50.264Z,2.60
2023-09-20T15:10:20.266Z,2.40
2023-09-20T15:12:49.067Z,2.80
2023-09-20T15:15:15.909Z,2.80
2023-09-20T15:17:45.738Z,2.67
2023-09-20T15:20:13.753Z,2.67
2023-09-20T15:22:40.662Z,2.73
2023-09-20T15:25:07.913Z,3.00
2023-09-20T15:27:35.231Z,2.60
2023-09-20T15:30:02.993Z,3.10
2023-09-20T15:32:29.846Z,2.60
2023-09-20T15:35:00.228Z,2.67
2023-09-20T15:37:31.980Z,2.67
2023-09-20T15:39:58.468Z,2.67
2023-09-20T15:42:24.993Z,2.50
2023-09-20T15:44:53.852Z,2.30
2023-09-20T15:47:22.486Z,2.33
2023-09-20T15:49:50.226Z,2.20
2023-09-20T15:52:17.860Z,2.70
2023-09-20T15:54:44.449Z,2.47
2023-09-20T15:57:12.908Z,2.60
2023-09-20T15:59:43.365Z,2.67
2023-09-20T16:02:11.445Z,2.10
2023-09-20T16:04:38.729Z,2.53
2023-09-20T16:07:07.328Z,2.63
2023-09-20T16:09:34.561Z,2.10
2023-09-20T16:12:01.934Z,2.50
2023-09-20T16:14:29.174Z,2.03
2023-09-20T16:16:55.776Z,2.07
2023-09-20T16:19:22.258Z,2.10
2023-09-20T16:21:49.295Z,2.23
2023-09-20T16:24:15.998Z,2.50
2023-09-20T16:26:42.659Z,2.90
2023-09-20T16:29:11.896Z,2.40
2023-09-20T16:31:39.621Z,2.10
2023-09-20T16:34:07.418Z,2.00
2023-09-20T16:36:34.058Z,2.00
2023-09-20T16:39:00.610Z,1.90
2023-09-20T16:41:27.246Z,2.20
2023-09-20T16:43:53.803Z,2.30
2023-09-20T16:46:20.441Z,2.00
2023-09-20T16:48:48.466Z,1.87
2023-09-20T16:51:15.085Z,2.30
2023-09-20T16:53:41.818Z,2.60
2023-09-20T16:56:10.136Z,2.30
2023-09-20T16:58:36.737Z,2.20
2023-09-20T17:01:04.192Z,2.20
2023-09-20T17:03:30.934Z,2.03
2023-09-20T17:05:58.596Z,2.13
2023-09-20T17:08:25.268Z,1.80
2023-09-20T17:10:51.847Z,1.90
2023-09-20T17:13:18.373Z,2.30
2023-09-20T17:15:44.979Z,1.80
2023-09-20T17:18:11.745Z,2.10
2023-09-20T17:20:41.049Z,1.67
2023-09-20T17:23:07.732Z,2.17
2023-09-20T17:25:34.325Z,1.70
2023-09-20T17:28:01.416Z,1.90
2023-09-20T17:30:27.843Z,2.13
2023-09-20T17:32:54.509Z,2.20
2023-09-20T17:35:21.444Z,2.13
2023-09-20T17:37:48.022Z,2.00
2023-09-20T17:40:17.930Z,2.20
2023-09-20T17:42:44.848Z,1.83
2023-09-20T17:45:11.754Z,2.40
2023-09-20T17:47:40.930Z,2.00
2023-09-20T17:50:08.498Z,2.07
2023-09-20T17:52:35.006Z,2.20
2023-09-20T17:55:01.662Z,2.17
2023-09-20T17:57:28.280Z,2.20
2023-09-20T17:59:54.816Z,1.90
2023-09-20T18:02:21.539Z,1.87
2023-09-20T18:04:48.532Z,2.50
2023-09-20T18:07:14.974Z,2.23
2023-09-20T18:09:41.570Z,2.10
2023-09-20T18:12:08.259Z,2.07
2023-09-20T18:14:38.201Z,2.10
2023-09-20T18:17:04.758Z,2.10
2023-09-20T18:19:31.672Z,2.20
2023-09-20T18:21:58.480Z,2.60
2023-09-20T18:24:25.246Z,2.07
2023-09-20T18:26:51.807Z,1.93
2023-09-20T18:29:18.584Z,2.10
2023-09-20T18:31:45.548Z,2.40
2023-09-20T18:34:14.829Z,2.27
2023-09-20T18:36:41.524Z,2.23
2023-09-20T18:39:13.428Z,2.30
2023-09-20T18:41:40.811Z,2.17
2023-09-20T18:44:08.369Z,1.90
2023-09-20T18:46:35.190Z,2.33
2023-09-20T18:49:01.976Z,1.60
2023-09-20T18:51:29.702Z,2.20
2023-09-20T18:53:57.245Z,2.23
2023-09-20T18:56:26.182Z,2.30
2023-09-20T18:58:52.655Z,2.13
2023-09-20T19:01:22.827Z,2.10
2023-09-20T19:03:50.158Z,2.00
2023-09-20T19:06:21.660Z,2.00
2023-09-20T19:08:56.268Z,1.90
2023-09-20T19:11:24.493Z,2.20
2023-09-20T19:13:51.510Z,2.20
2023-09-20T19:16:18.300Z,2.10
2023-09-20T19:18:56.371Z,2.50
2023-09-20T19:21:23.215Z,2.10
2023-09-20T19:23:50.011Z,2.60
2023-09-20T19:26:17.648Z,2.40
2023-09-20T19:28:44.197Z,2.30
2023-09-20T19:31:10.660Z,2.33
2023-09-20T19:33:43.964Z,1.77
2023-09-20T19:36:10.791Z,2.10
2023-09-20T19:38:38.236Z,1.83
2023-09-20T19:41:06.698Z,1.83
2023-09-20T19:43:35.000Z,2.10
2023-09-20T19:46:12.268Z,2.20
2023-09-20T19:48:45.271Z,2.43
2023-09-20T19:51:12.447Z,2.10
2023-09-20T19:53:39.689Z,1.70
2023-09-20T19:56:33.079Z,1.83
2023-09-20T19:58:59.924Z,2.10
2023-09-20T20:01:26.535Z,2.43
2023-09-20T20:03:53.221Z,2.10
2023-09-20T20:06:19.965Z,2.10
2023-09-20T20:08:46.852Z,1.90
2023-09-20T20:11:14.122Z,1.97
2023-09-20T20:13:41.436Z,2.10
2023-09-20T20:16:15.011Z,2.00
2023-09-20T20:18:43.168Z,2.20
2023-09-20T20:21:10.849Z,2.10
2023-09-20T20:23:38.544Z,2.00
2023-09-20T20:26:14.991Z,2.20
2023-09-20T20:28:42.353Z,2.00
2023-09-20T20:31:09.491Z,2.30
2023-09-20T20:33:36.821Z,2.23
2023-09-20T20:36:13.350Z,2.07
2023-09-20T20:38:40.139Z,2.13
2023-09-20T20:41:06.890Z,2.10
2023-09-20T20:43:33.543Z,2.10
2023-09-20T20:46:00.370Z,2.27
2023-09-20T20:48:27.140Z,2.30
2023-09-20T20:50:53.977Z,2.97
2023-09-20T20:53:25.237Z,2.30
2023-09-20T20:55:55.321Z,2.30
2023-09-20T20:58:25.142Z,2.70
2023-09-20T21:00:55.695Z,2.87
2023-09-20T21:03:22.766Z,2.40
2023-09-20T21:05:50.935Z,2.60
2023-09-20T21:08:18.582Z,2.53
2023-09-20T21:10:45.492Z,2.37
2023-09-20T21:13:12.893Z,2.03
2023-09-20T21:15:46.699Z,2.40
2023-09-20T21:18:17.611Z,2.10
2023-09-20T21:20:52.130Z,2.07
2023-09-20T21:23:18.932Z,2.40
2023-09-20T21:25:46.905Z,2.37
2023-09-20T21:28:13.580Z,2.00
2023-09-20T21:30:40.172Z,2.00
2023-09-20T21:33:09.807Z,2.57
2023-09-20T21:35:37.677Z,2.50
2023-09-20T21:38:09.396Z,2.40
2023-09-20T21:40:38.779Z,2.23
2023-09-20T21:43:07.136Z,2.20
2023-09-20T21:45:33.615Z,2.50
2023-09-20T21:48:00.440Z,2.40
2023-09-20T21:50:29.513Z,2.50
2023-09-20T21:52:58.281Z,2.10
2023-09-20T21:55:27.343Z,2.50
2023-09-20T21:57:54.613Z,2.20
2023-09-20T22:00:21.974Z,2.50
2023-09-20T22:02:49.734Z,2.70
2023-09-20T22:05:16.793Z,2.30
2023-09-20T22:07:45.381Z,2.73
2023-09-20T22:10:18.479Z,2.20
2023-09-20T22:12:46.994Z,2.40
2023-09-20T22:15:18.626Z,2.30
2023-09-20T22:17:47.446Z,2.33
2023-09-20T22:20:18.635Z,2.90
2023-09-20T22:22:54.352Z,2.50
2023-09-20T22:25:24.472Z,2.40
2023-09-20T22:27:53.392Z,2.50
2023-09-20T22:30:19.982Z,2.63
2023-09-20T22:32:46.843Z,2.37
2023-09-20T22:35:14.849Z,2.70
2023-09-20T22:37:42.637Z,2.53
2023-09-20T22:40:15.545Z,2.20
2023-09-20T22:42:43.167Z,2.67
2023-09-20T22:45:20.268Z,2.70
2023-09-20T22:47:47.037Z,2.10
2023-09-20T22:50:13.988Z,2.40
2023-09-20T22:52:40.635Z,2.60
2023-09-20T22:55:09.661Z,2.20
2023-09-20T22:57:37.560Z,2.40
2023-09-20T23:00:22.955Z,2.03
2023-09-20T23:02:51.678Z,2.53
2023-09-20T23:05:20.246Z,2.53
2023-09-20T23:07:51.324Z,2.40
2023-09-20T23:10:24.558Z,2.07
2023-09-20T23:12:53.680Z,2.17
2023-09-20T23:15:24.053Z,2.50
2023-09-20T23:18:03.312Z,2.13
2023-09-20T23:20:39.065Z,2.53
2023-09-20T23:23:06.643Z,2.33
2023-09-20T23:25:40.820Z,2.80
2023-09-20T23:28:09.972Z,2.20
2023-09-20T23:30:40.625Z,2.50
2023-09-20T23:33:14.858Z,2.40
2023-09-20T23:35:50.480Z,2.10
2023-09-20T23:38:22.720Z,1.80
2023-09-20T23:41:00.440Z,2.27
2023-09-20T23:43:27.219Z,2.30
2023-09-20T23:45:53.776Z,2.50
2023-09-20T23:48:20.456Z,2.50
2023-09-20T23:50:48.789Z,2.10
2023-09-20T23:53:15.332Z,2.67
2023-09-20T23:55:43.662Z,2.57
2023-09-20T23:58:10.205Z,1.90
